Time;durP1;ratioP1;P1;durP2;ratioP2;P2;SDS_P1;SDS_P2;PMS_P1;PMS_P2;Temp;Humidity;BMP_temperature;BMP_pressure;BME280_temperature;BME280_humidity;BME280_pressure;Samples;Min_cycle;Max_cycle;Signal;HPM_P1;HPM_P2
2022/10/04 00:01:08;;;;;;;11.15;6.57;;;12.00;99.90;;;;;;5074465;28;20067;-79
2022/10/04 00:03:45;;;;;;;17.00;7.18;;;12.00;99.90;;;;;;5074202;28;20059;-79
2022/10/04 00:06:21;;;;;;;13.15;5.93;;;12.00;99.90;;;;;;5074449;28;20047;-80
2022/10/04 00:08:57;;;;;;;12.70;6.57;;;12.00;99.90;;;;;;5074653;28;20142;-80
2022/10/04 00:11:35;;;;;;;9.98;5.88;;;12.00;99.90;;;;;;5074371;28;20534;-80
2022/10/04 00:14:13;;;;;;;9.70;6.43;;;12.00;99.90;;;;;;5074200;28;20054;-81
2022/10/04 00:16:40;;;;;;;11.90;5.97;;;12.00;99.90;;;;;;5073298;28;20050;-80
2022/10/04 00:19:15;;;;;;;9.60;5.55;;;12.00;99.90;;;;;;5074228;28;20465;-79
2022/10/04 00:21:56;;;;;;;11.80;6.53;;;11.80;99.90;;;;;;5074106;28;20052;-79
2022/10/04 00:24:27;;;;;;;11.15;6.20;;;12.00;99.90;;;;;;5073974;28;20471;-79
2022/10/04 00:27:18;;;;;;;14.85;6.90;;;11.90;99.90;;;;;;5074075;28;20052;-79
2022/10/04 00:30:01;;;;;;;17.50;6.90;;;11.90;99.90;;;;;;5072878;28;20048;-80
2022/10/04 00:32:39;;;;;;;11.82;6.28;;;11.90;99.90;;;;;;5074113;28;20067;-79
2022/10/04 00:35:24;;;;;;;14.65;7.47;;;11.90;99.90;;;;;;5073968;28;20079;-79
2022/10/04 00:37:57;;;;;;;11.32;6.50;;;11.90;99.90;;;;;;5073767;28;20045;-80
2022/10/04 00:40:30;;;;;;;10.48;6.60;;;11.90;99.90;;;;;;5074046;28;20049;-79
2022/10/04 00:43:03;;;;;;;12.40;7.22;;;11.90;99.90;;;;;;5074364;28;20079;-79
2022/10/04 00:45:38;;;;;;;12.52;6.95;;;11.90;99.90;;;;;;5073805;28;20071;-79
2022/10/04 00:48:17;;;;;;;11.43;6.63;;;11.90;99.90;;;;;;5073601;28;20511;-79
2022/10/04 00:50:54;;;;;;;13.38;6.47;;;11.90;99.90;;;;;;5074005;28;20055;-81
2022/10/04 00:53:44;;;;;;;12.40;6.78;;;11.90;99.90;;;;;;5073791;28;20045;-79
2022/10/04 00:56:27;;;;;;;11.25;5.88;;;11.80;99.90;;;;;;5074164;28;20094;-81
2022/10/04 00:58:58;;;;;;;9.43;6.40;;;11.90;99.90;;;;;;5074018;28;20049;-79
2022/10/04 01:01:27;;;;;;;11.93;6.75;;;11.80;99.90;;;;;;5073798;28;20040;-80
2022/10/04 01:03:57;;;;;;;11.07;6.70;;;11.80;99.90;;;;;;5072174;28;20044;-80
2022/10/04 01:06:23;;;;;;;9.65;6.07;;;11.80;99.90;;;;;;5073034;28;20048;-78
2022/10/04 01:08:55;;;;;;;12.68;7.28;;;11.80;99.90;;;;;;5072139;28;20481;-79
2022/10/04 01:11:27;;;;;;;14.38;6.72;;;12.20;99.90;;;;;;5073496;28;20173;-79
2022/10/04 01:14:03;;;;;;;12.38;7.43;;;12.30;99.90;;;;;;5072252;28;20048;-80
2022/10/04 01:16:32;;;;;;;12.82;6.85;;;11.80;99.90;;;;;;5073500;28;20045;-79
2022/10/04 01:19:25;;;;;;;9.98;6.93;;;11.70;99.90;;;;;;5073495;28;20391;-79
2022/10/04 01:22:07;;;;;;;9.77;6.38;;;11.70;99.90;;;;;;5072515;28;20052;-79
2022/10/04 01:24:41;;;;;;;13.98;6.95;;;11.60;99.90;;;;;;5073320;28;20120;-80
2022/10/04 01:27:36;;;;;;;17.90;7.57;;;11.70;99.90;;;;;;5073373;28;20419;-80
2022/10/04 01:30:07;;;;;;;11.95;6.85;;;11.70;99.90;;;;;;5068393;28;20061;-79
2022/10/04 01:32:34;;;;;;;14.30;7.22;;;11.70;99.90;;;;;;5073404;28;20055;-80
2022/10/04 01:34:59;;;;;;;14.05;6.88;;;11.60;99.90;;;;;;5072336;28;20098;-80
2022/10/04 01:37:26;;;;;;;11.32;5.95;;;11.60;99.90;;;;;;5073236;28;20044;-80
2022/10/04 01:39:52;;;;;;;;;;;11.80;99.90;;;;;;5073729;28;20036;-79
2022/10/04 01:42:26;;;;;;;12.95;6.93;;;11.70;99.90;;;;;;5072971;28;19947;-79
2022/10/04 01:45:15;;;;;;;16.20;6.95;;;11.60;99.90;;;;;;5073218;28;20048;-80
2022/10/04 01:47:50;;;;;;;10.77;6.93;;;11.50;99.90;;;;;;5072030;28;20051;-78
2022/10/04 01:50:31;;;;;;;13.20;7.53;;;12.10;99.90;;;;;;5073158;28;20388;-79
2022/10/04 01:53:11;;;;;;;10.88;6.32;;;11.70;99.90;;;;;;5073233;28;20052;-80
2022/10/04 01:55:40;;;;;;;12.93;7.40;;;11.50;99.90;;;;;;5073149;28;20041;-80
2022/10/04 01:58:18;;;;;;;14.23;6.82;;;11.50;99.90;;;;;;5072758;28;20511;-79
2022/10/04 02:00:54;;;;;;;10.07;7.47;;;11.50;99.90;;;;;;5073058;28;20045;-79
2022/10/04 02:03:33;;;;;;;10.70;7.43;;;11.50;99.90;;;;;;5073217;28;20044;-79
2022/10/04 02:06:03;;;;;;;12.50;6.97;;;11.50;99.90;;;;;;5073179;28;20071;-80
2022/10/04 02:08:34;;;;;;;15.27;7.90;;;11.50;99.90;;;;;;5072990;28;20055;-80
2022/10/04 02:11:02;;;;;;;13.73;7.28;;;11.50;99.90;;;;;;5072921;28;20463;-79
2022/10/04 02:13:34;;;;;;;12.60;7.60;;;11.50;99.90;;;;;;5073123;28;20491;-79
2022/10/04 02:16:02;;;;;;;14.98;6.97;;;11.50;99.90;;;;;;5072964;28;20048;-80
2022/10/04 02:18:30;;;;;;;12.90;6.80;;;11.50;99.90;;;;;;5072156;28;20049;-78
2022/10/04 02:20:57;;;;;;;13.93;7.82;;;12.00;99.90;;;;;;5076472;28;20123;-79
2022/10/04 02:23:23;;;;;;;16.45;7.20;;;11.60;99.90;;;;;;5058725;28;20136;-79
2022/10/04 02:25:49;;;;;;;14.05;7.32;;;11.60;99.90;;;;;;5076396;28;20052;-79
2022/10/04 02:28:17;;;;;;;13.60;7.78;;;11.50;99.90;;;;;;5076683;28;20127;-80
2022/10/04 02:33:43;;;;;;;15.50;7.85;;;11.60;99.90;;;;;;5076247;28;20086;-79
2022/10/04 02:36:10;;;;;;;16.65;7.72;;;11.60;99.90;;;;;;5075807;28;20162;-80
2022/10/04 02:38:41;;;;;;;;;;;12.10;99.90;;;;;;5076567;28;20041;-79
2022/10/04 02:41:30;;;;;;;22.52;7.05;;;11.60;99.90;;;;;;5076862;28;19943;-80
2022/10/04 02:44:11;;;;;;;15.18;6.97;;;11.60;99.90;;;;;;5075907;28;20044;-79
2022/10/04 02:46:56;;;;;;;15.32;7.10;;;11.60;99.90;;;;;;5075949;28;20047;-80
2022/10/04 02:49:40;;;;;;;12.63;6.65;;;11.60;99.90;;;;;;5068181;28;20063;-79
2022/10/04 02:52:15;;;;;;;13.02;7.55;;;11.60;99.90;;;;;;5075852;28;20484;-79
2022/10/04 02:55:02;;;;;;;11.20;6.93;;;11.50;99.90;;;;;;5075943;28;20431;-80
2022/10/04 02:57:31;;;;;;;12.55;6.72;;;11.50;99.90;;;;;;5075783;28;20048;-79
2022/10/04 03:00:30;;;;;;;12.57;6.95;;;11.50;99.90;;;;;;5074484;28;20086;-79
2022/10/04 03:03:17;;;;;;;14.82;6.63;;;11.40;99.90;;;;;;5075402;28;20080;-79
2022/10/04 03:05:57;;;;;;;15.63;6.93;;;11.40;99.90;;;;;;5075637;28;20048;-81
2022/10/04 03:08:23;;;;;;;12.00;6.93;;;11.40;99.90;;;;;;5075599;28;20052;-80
2022/10/04 03:10:49;;;;;;;15.40;6.80;;;11.40;99.90;;;;;;5074528;28;20044;-79
2022/10/04 03:13:18;;;;;;;13.10;6.45;;;11.30;99.90;;;;;;5075498;28;20097;-79
2022/10/04 03:15:45;;;;;;;12.13;6.30;;;11.90;99.90;;;;;;5075297;28;20075;-80
2022/10/04 03:18:13;;;;;;;13.23;7.57;;;11.30;99.90;;;;;;5075133;28;20480;-79
2022/10/04 03:20:40;;;;;;;16.27;7.55;;;11.20;99.90;;;;;;5075338;28;20049;-80
2022/10/04 03:23:06;;;;;;;14.93;7.32;;;11.20;99.90;;;;;;5075187;28;20044;-79
2022/10/04 03:25:54;;;;;;;12.90;7.07;;;11.20;99.90;;;;;;5075278;28;20040;-80
2022/10/04 03:28:20;;;;;;;13.27;6.82;;;11.20;99.90;;;;;;5075104;28;20052;-79
2022/10/04 03:30:47;;;;;;;16.47;7.80;;;11.00;99.90;;;;;;5074725;28;20178;-80
2022/10/04 03:33:19;;;;;;;13.05;8.00;;;11.20;99.90;;;;;;5074257;28;20052;-79
2022/10/04 03:35:49;;;;;;;14.32;7.15;;;11.10;99.90;;;;;;5075014;28;20066;-80
2022/10/04 03:38:16;;;;;;;14.43;7.20;;;11.30;99.90;;;;;;5074964;28;20044;-80
2022/10/04 03:40:50;;;;;;;11.73;7.97;;;11.10;99.90;;;;;;5074885;28;20139;-78
2022/10/04 03:43:16;;;;;;;18.23;8.63;;;11.30;99.90;;;;;;5074999;28;20397;-80
2022/10/04 03:45:42;;;;;;;13.85;8.13;;;11.10;99.90;;;;;;5073858;28;20511;-79
2022/10/04 03:48:13;;;;;;;18.02;8.65;;;11.10;99.90;;;;;;5073601;28;20048;-79
2022/10/04 03:50:48;;;;;;;15.07;7.65;;;11.20;99.90;;;;;;5074773;28;20048;-79
2022/10/04 03:53:38;;;;;;;17.02;7.55;;;11.20;99.90;;;;;;5074598;28;20080;-79
2022/10/04 03:56:16;;;;;;;14.13;8.77;;;11.10;99.90;;;;;;5074666;28;20081;-81
2022/10/04 03:58:43;;;;;;;12.40;7.53;;;11.10;99.90;;;;;;5073714;28;20093;-79
2022/10/04 04:01:22;;;;;;;13.80;8.32;;;11.70;99.90;;;;;;5074584;28;20426;-79
2022/10/04 04:04:05;;;;;;;16.15;8.18;;;11.00;99.90;;;;;;5074381;28;20036;-79
2022/10/04 04:06:42;;;;;;;15.23;9.15;;;11.10;99.90;;;;;;5074486;28;20045;-79
2022/10/04 04:09:15;;;;;;;15.45;8.93;;;11.10;99.90;;;;;;5074741;28;20392;-80
2022/10/04 04:11:43;;;;;;;17.73;8.23;;;11.00;99.90;;;;;;5074339;28;20063;-79
2022/10/04 04:14:13;;;;;;;17.58;9.02;;;11.00;99.90;;;;;;5074186;28;20051;-80
2022/10/04 04:16:39;;;;;;;14.05;8.98;;;11.00;99.90;;;;;;5074337;28;20051;-79
2022/10/04 04:19:12;;;;;;;19.90;8.47;;;11.10;99.90;;;;;;5073798;28;20093;-80
2022/10/04 04:21:38;;;;;;;14.32;9.57;;;11.00;99.90;;;;;;5074269;28;20044;-79
2022/10/04 04:24:23;;;;;;;11.27;8.50;;;11.00;99.90;;;;;;5074088;28;20497;-79
2022/10/04 04:27:00;;;;;;;16.63;9.50;;;11.00;99.90;;;;;;5072799;28;20052;-80
2022/10/04 04:29:49;;;;;;;15.30;8.73;;;11.00;99.90;;;;;;5074198;28;20055;-78
2022/10/04 04:32:30;;;;;;;17.27;9.52;;;10.90;99.90;;;;;;5074280;28;20459;-79
2022/10/04 04:35:06;;;;;;;16.55;8.65;;;10.90;99.90;;;;;;5072881;28;20412;-80
2022/10/04 04:37:36;;;;;;;15.68;9.63;;;10.90;99.90;;;;;;5074643;28;20044;-80
2022/10/04 04:40:18;;;;;;;15.88;8.98;;;10.90;99.90;;;;;;5074256;28;20483;-80
2022/10/04 04:42:46;;;;;;;14.02;8.30;;;10.90;99.90;;;;;;5071864;28;20411;-79
2022/10/04 04:45:24;;;;;;;15.35;9.32;;;10.80;99.90;;;;;;5073715;28;20044;-80
2022/10/04 04:47:52;;;;;;;14.38;8.90;;;10.80;99.90;;;;;;5073725;28;20041;-79
2022/10/04 04:50:29;;;;;;;16.35;9.55;;;10.80;99.90;;;;;;5073715;28;20044;-79
2022/10/04 04:53:05;;;;;;;16.27;10.13;;;10.80;99.90;;;;;;5074107;28;20090;-80
2022/10/04 04:55:43;;;;;;;15.23;8.38;;;10.80;99.90;;;;;;5073949;28;20044;-79
2022/10/04 04:58:22;;;;;;;16.63;9.95;;;10.80;99.90;;;;;;5072424;28;20559;-80
2022/10/04 05:00:55;;;;;;;12.68;9.02;;;10.80;99.90;;;;;;5073644;28;20131;-79
2022/10/04 05:03:21;;;;;;;17.25;10.32;;;10.80;99.90;;;;;;5073767;28;20053;-79
2022/10/04 05:05:46;;;;;;;18.33;9.35;;;10.50;99.90;;;;;;5073644;28;20105;-79
2022/10/04 05:08:20;;;;;;;16.65;9.82;;;10.70;99.90;;;;;;5072596;28;20080;-79
2022/10/04 05:11:04;;;;;;;17.85;11.15;;;10.70;99.90;;;;;;5073192;28;20488;-80
2022/10/04 05:13:44;;;;;;;18.08;10.45;;;10.60;99.90;;;;;;5073583;28;20048;-79
2022/10/04 05:16:19;;;;;;;15.90;9.88;;;10.60;99.90;;;;;;5073792;28;20396;-81
2022/10/04 05:18:45;;;;;;;17.73;10.15;;;10.60;99.90;;;;;;5072596;28;20097;-81
2022/10/04 05:21:19;;;;;;;16.63;11.23;;;10.60;99.90;;;;;;5071994;28;20036;-78
2022/10/04 05:23:46;;;;;;;19.38;12.52;;;10.50;99.90;;;;;;5073591;28;20131;-77
2022/10/04 05:26:12;;;;;;;;;;;10.50;99.90;;;;;;5073839;28;20102;-79
2022/10/04 05:28:38;;;;;;;15.32;9.38;;;11.00;99.90;;;;;;5072236;28;19980;-80
2022/10/04 05:31:21;;;;;;;20.67;10.52;;;10.40;99.90;;;;;;5073204;28;20048;-79
2022/10/04 05:33:50;;;;;;;23.35;12.93;;;10.40;99.90;;;;;;5073366;28;20369;-80
2022/10/04 05:36:40;;;;;;;20.80;12.10;;;10.40;99.90;;;;;;5073268;28;20492;-80
2022/10/04 05:39:27;;;;;;;20.65;11.27;;;10.40;99.90;;;;;;5073350;28;20056;-77
2022/10/04 05:42:01;;;;;;;18.17;11.55;;;10.30;99.90;;;;;;5073279;28;20053;-79
2022/10/04 05:44:30;;;;;;;27.55;12.32;;;10.40;99.90;;;;;;5073719;28;20388;-80
2022/10/04 05:47:00;;;;;;;20.00;11.48;;;10.30;99.90;;;;;;5072582;28;20036;-80
2022/10/04 05:49:54;;;;;;;18.48;10.88;;;10.40;99.90;;;;;;5053468;28;20401;-80
2022/10/04 05:52:33;;;;;;;19.67;10.85;;;10.30;99.90;;;;;;5050403;28;20106;-79
2022/10/04 05:55:11;;;;;;;19.85;10.68;;;10.30;99.90;;;;;;5055657;28;20080;-79
2022/10/04 05:58:17;;;;;;;19.52;12.18;;;10.20;99.90;;;;;;5056757;28;20049;-79
2022/10/04 06:01:03;;;;;;;19.65;12.23;;;10.20;99.90;;;;;;5056890;28;20114;-79
2022/10/04 06:03:50;;;;;;;17.17;11.50;;;10.20;99.90;;;;;;5057213;28;20382;-79
2022/10/04 06:06:25;;;;;;;18.38;12.68;;;10.20;99.90;;;;;;5055571;28;20049;-79
2022/10/04 06:09:08;;;;;;;20.13;12.02;;;10.20;99.90;;;;;;5056590;28;20055;-79
2022/10/04 06:11:43;;;;;;;23.90;12.60;;;10.20;99.90;;;;;;5057094;28;20045;-79
2022/10/04 06:14:21;;;;;;;23.35;14.27;;;10.20;99.90;;;;;;5056461;28;20041;-79
2022/10/04 06:17:12;;;;;;;21.27;12.27;;;10.20;99.90;;;;;;5056832;28;20044;-79
2022/10/04 06:19:53;;;;;;;23.48;14.18;;;10.10;99.90;;;;;;5056460;28;20102;-79
2022/10/04 06:22:21;;;;;;;22.17;13.25;;;10.20;99.90;;;;;;5056901;28;20106;-79
2022/10/04 06:25:02;;;;;;;17.75;11.85;;;10.20;99.90;;;;;;5056303;28;20055;-79
2022/10/04 06:27:35;;;;;;;18.70;13.18;;;10.20;99.90;;;;;;5056696;28;20099;-79
2022/10/04 06:30:11;;;;;;;22.77;12.90;;;10.30;99.90;;;;;;5056419;28;20052;-79
2022/10/04 06:32:55;;;;;;;18.92;11.93;;;10.20;99.90;;;;;;5055164;28;20140;-80
2022/10/04 06:35:39;;;;;;;19.60;14.27;;;10.20;99.90;;;;;;5072449;28;20057;-79
2022/10/04 06:38:32;;;;;;;20.02;12.82;;;10.20;99.90;;;;;;5056251;28;20060;-79
2022/10/04 06:41:23;;;;;;;22.40;12.85;;;10.20;99.90;;;;;;5056627;28;20127;-79
2022/10/04 06:44:27;;;;;;;22.65;12.43;;;10.20;99.90;;;;;;5056397;28;20060;-79
2022/10/04 06:47:01;;;;;;;23.27;12.73;;;10.20;99.90;;;;;;5056015;28;20124;-79
2022/10/04 06:50:07;;;;;;;21.17;11.93;;;10.20;99.90;;;;;;5056177;28;20045;-79
2022/10/04 06:52:46;;;;;;;22.02;11.75;;;10.20;99.90;;;;;;5055955;28;20044;-79
2022/10/04 06:55:14;;;;;;;17.20;12.38;;;10.30;99.90;;;;;;5065167;28;20049;-77
2022/10/04 06:57:49;;;;;;;20.10;12.43;;;10.20;99.90;;;;;;5076223;28;20047;-80
2022/10/04 07:00:15;;;;;;;24.38;13.27;;;10.30;99.90;;;;;;5075979;28;20041;-79
2022/10/04 07:02:56;;;;;;;23.15;11.60;;;10.30;99.90;;;;;;5075686;28;20117;-81
2022/10/04 07:05:32;;;;;;;22.38;13.20;;;10.30;99.90;;;;;;5074439;28;20044;-80
2022/10/04 07:08:32;;;;;;;18.52;12.80;;;10.30;99.90;;;;;;5074928;28;20052;-81
2022/10/04 07:11:03;;;;;;;24.75;15.00;;;10.30;99.90;;;;;;5046854;28;20068;-80
2022/10/04 07:13:45;;;;;;;17.70;12.50;;;10.40;99.90;;;;;;5073826;28;20492;-80
2022/10/04 07:16:40;;;;;;;22.90;11.63;;;10.70;99.90;;;;;;5075364;28;20043;-80
2022/10/04 07:19:33;;;;;;;21.58;13.00;;;10.60;99.90;;;;;;5055711;28;20056;-80
2022/10/04 07:22:05;;;;;;;23.75;13.40;;;10.70;99.90;;;;;;5074506;28;20091;-79
2022/10/04 07:24:49;;;;;;;21.13;11.88;;;11.00;99.90;;;;;;5073171;28;20045;-80
2022/10/04 07:30:55;;;;;;;16.48;11.20;;;11.20;99.90;;;;;;5060409;28;20050;-81
2022/10/04 07:33:24;;;;;;;17.35;10.77;;;11.30;99.90;;;;;;5075145;28;20070;-81
2022/10/04 07:36:02;;;;;;;14.48;10.30;;;11.50;99.90;;;;;;5075008;28;20040;-81
2022/10/04 07:38:31;;;;;;;16.98;10.48;;;11.60;99.90;;;;;;5075055;28;20056;-81
2022/10/04 07:41:27;;;;;;;15.77;10.80;;;11.90;99.90;;;;;;5075012;28;20048;-81
2022/10/04 07:44:04;;;;;;;18.02;9.75;;;11.80;99.90;;;;;;5074666;28;20091;-80
2022/10/04 07:46:36;;;;;;;14.45;9.35;;;11.80;99.90;;;;;;5056031;28;20082;-80
2022/10/04 07:49:02;;;;;;;16.77;9.80;;;11.90;99.90;;;;;;5053845;28;20471;-80
2022/10/04 07:51:35;;;;;;;20.15;9.98;;;11.90;99.90;;;;;;5054541;28;20534;-79
2022/10/04 07:54:32;;;;;;;16.27;8.70;;;12.00;99.90;;;;;;5054029;28;20098;-80
2022/10/04 07:57:05;;;;;;;12.63;8.82;;;12.10;99.90;;;;;;5052879;28;20063;-80
2022/10/04 07:59:48;;;;;;;12.48;9.00;;;12.20;99.90;;;;;;5054674;28;20088;-80
2022/10/04 08:02:21;;;;;;;14.18;8.43;;;12.20;99.90;;;;;;5054475;28;20546;-79
2022/10/04 08:05:23;;;;;;;13.68;8.60;;;12.20;99.90;;;;;;5054850;28;20041;-79
2022/10/04 08:08:00;;;;;;;13.18;8.25;;;12.20;99.90;;;;;;5053593;28;20044;-81
2022/10/04 08:10:40;;;;;;;;;;;12.30;99.90;;;;;;5054480;28;20489;-81
2022/10/04 08:13:14;;;;;;;16.73;7.65;;;12.40;99.90;;;;;;5054546;28;19921;-79
2022/10/04 08:15:42;;;;;;;13.15;7.30;;;12.40;99.90;;;;;;5053560;28;20084;-80
2022/10/04 08:18:29;;;;;;;11.18;6.80;;;12.90;99.90;;;;;;5053719;28;20125;-80
2022/10/04 08:21:02;;;;;;;10.05;6.43;;;12.60;99.90;;;;;;5054227;28;20049;-81
2022/10/04 08:23:46;;;;;;;15.88;7.10;;;13.30;99.90;;;;;;5053420;28;20064;-76
2022/10/04 08:26:24;;;;;;;10.57;6.68;;;12.90;99.90;;;;;;5054376;28;20133;-77
2022/10/04 08:29:43;;;;;;;12.20;6.32;;;13.10;99.90;;;;;;5053873;28;20045;-80
2022/10/04 08:32:22;;;;;;;10.68;6.10;;;13.30;99.90;;;;;;5048253;28;20061;-80
2022/10/04 08:35:15;;;;;;;12.95;6.30;;;13.50;99.90;;;;;;5036834;28;20476;-80
2022/10/04 08:37:52;;;;;;;8.98;5.38;;;13.70;99.90;;;;;;5053804;28;20053;-78
2022/10/04 08:41:20;;;;;;;10.00;5.53;;;13.80;99.90;;;;;;5052739;28;20064;-77
2022/10/04 08:44:40;;;;;;;9.38;6.05;;;14.00;99.90;;;;;;5053223;28;20409;-78
2022/10/04 08:47:35;;;;;;;13.65;5.75;;;13.90;99.90;;;;;;5031898;28;20573;-79
2022/10/04 08:50:27;;;;;;;11.10;6.63;;;13.80;99.90;;;;;;5034108;28;20483;-78
2022/10/04 08:53:02;;;;;;;12.93;6.40;;;13.70;99.90;;;;;;5054186;28;20049;-80
2022/10/04 08:55:53;;;;;;;10.80;6.10;;;13.60;99.90;;;;;;5052634;28;20147;-80
2022/10/04 08:58:25;;;;;;;12.00;6.03;;;13.60;99.90;;;;;;5050474;28;20186;-80
2022/10/04 09:00:58;;;;;;;11.77;5.72;;;13.70;99.90;;;;;;5052564;28;20056;-80
2022/10/04 09:04:13;;;;;;;9.55;6.13;;;13.80;99.90;;;;;;5054117;28;20480;-81
2022/10/04 09:06:43;;;;;;;11.43;6.45;;;13.90;99.90;;;;;;5053615;28;20045;-79
2022/10/04 09:09:28;;;;;;;9.40;5.88;;;14.00;99.90;;;;;;5051192;28;20056;-80
2022/10/04 09:11:59;;;;;;;8.25;5.28;;;14.10;99.90;;;;;;5053434;28;20123;-80
2022/10/04 09:14:33;;;;;;;9.98;6.00;;;14.10;99.90;;;;;;5053269;28;20044;-80
2022/10/04 09:17:36;;;;;;;11.35;5.88;;;14.30;99.90;;;;;;5053354;28;20060;-79
2022/10/04 09:20:20;;;;;;;8.55;5.30;;;14.40;99.90;;;;;;5036002;28;20049;-80
2022/10/04 09:23:20;;;;;;;11.18;5.47;;;14.40;99.90;;;;;;5053209;28;20044;-82
2022/10/04 09:25:48;;;;;;;13.70;5.40;;;14.50;99.90;;;;;;5053100;28;20048;-81
2022/10/04 09:28:35;;;;;;;13.90;6.53;;;14.60;99.90;;;;;;5053878;28;20045;-79
2022/10/04 09:31:21;;;;;;;9.13;5.43;;;14.70;99.90;;;;;;5057240;28;20103;-79
2022/10/04 09:34:20;;;;;;;10.18;6.15;;;14.70;99.90;;;;;;5057383;28;20047;-80
2022/10/04 09:37:05;;;;;;;9.30;5.75;;;14.90;99.90;;;;;;5057379;28;20145;-80
2022/10/04 09:40:08;;;;;;;10.45;4.97;;;15.10;99.90;;;;;;5057633;28;20424;-80
2022/10/04 09:43:00;;;;;;;9.43;5.35;;;15.10;99.90;;;;;;5056852;28;20061;-79
2022/10/04 09:45:51;;;;;;;12.23;5.47;;;15.20;99.90;;;;;;5057582;28;20045;-81
2022/10/04 09:48:24;;;;;;;9.30;5.25;;;15.30;99.90;;;;;;5057181;28;20440;-79
2022/10/04 09:51:00;;;;;;;9.80;5.53;;;15.20;99.90;;;;;;5056815;28;20518;-80
2022/10/04 09:53:53;;;;;;;9.93;5.63;;;15.30;99.90;;;;;;5056236;28;20392;-79
2022/10/04 09:56:44;;;;;;;11.07;5.90;;;15.30;99.90;;;;;;5057202;28;20048;-80
2022/10/04 09:59:36;;;;;;;9.40;5.28;;;15.40;99.90;;;;;;5056887;28;20514;-79
2022/10/04 10:02:01;;;;;;;9.55;5.38;;;15.50;99.90;;;;;;5048435;28;20091;-80
2022/10/04 10:04:58;;;;;;;8.57;4.93;;;15.50;99.90;;;;;;5057217;28;20381;-79
2022/10/04 10:07:30;;;;;;;11.38;5.28;;;15.60;99.90;;;;;;5053600;28;20074;-80
2022/10/04 10:13:41;;;;;;;8.20;4.75;;;15.80;99.90;;;;;;5055930;28;20140;-79
2022/10/04 10:16:40;;;;;;;9.73;5.20;;;15.80;99.90;;;;;;5056597;28;20110;-79
2022/10/04 10:19:21;;;;;;;10.63;5.32;;;15.90;99.90;;;;;;5055789;28;20052;-79
2022/10/04 10:22:17;;;;;;;10.07;4.90;;;16.00;99.90;;;;;;5056726;28;20044;-80
2022/10/04 10:25:09;;;;;;;8.05;4.90;;;16.10;99.90;;;;;;5056324;28;20044;-80
2022/10/04 10:27:56;;;;;;;8.73;4.43;;;16.10;99.90;;;;;;5057858;28;20392;-78
2022/10/04 10:30:37;;;;;;;10.48;4.50;;;16.10;99.90;;;;;;5059584;28;20041;-78
2022/10/04 10:33:31;;;;;;;8.50;4.63;;;16.10;99.90;;;;;;5056293;28;20044;-80
2022/10/04 10:36:19;;;;;;;6.85;4.30;;;16.20;99.90;;;;;;5056317;28;20041;-77
2022/10/04 10:39:08;;;;;;;9.20;4.70;;;16.30;99.90;;;;;;5055626;28;20045;-78
2022/10/04 10:41:46;;;;;;;7.53;3.83;;;16.30;99.90;;;;;;5056062;28;20045;-78
2022/10/04 10:44:32;;;;;;;7.07;3.92;;;16.40;99.90;;;;;;5055886;28;20521;-76
2022/10/04 10:47:30;;;;;;;9.13;4.00;;;16.50;99.90;;;;;;5056049;28;20067;-77
2022/10/04 10:50:57;;;;;;;6.88;3.72;;;16.60;99.90;;;;;;5043639;28;20139;-80
2022/10/04 10:53:31;;;;;;;8.10;3.50;;;16.60;99.90;;;;;;5052765;28;20102;-78
2022/10/04 10:56:15;;;;;;;8.68;3.88;;;16.70;99.90;;;;;;5056284;28;20045;-77
2022/10/04 10:59:22;;;;;;;7.05;3.70;;;16.70;99.90;;;;;;5055808;28;20110;-78
2022/10/04 11:02:13;;;;;;;8.80;4.50;;;16.70;99.90;;;;;;5055324;28;20053;-78
2022/10/04 11:04:56;;;;;;;7.20;3.83;;;16.80;99.90;;;;;;5055628;28;20052;-78
2022/10/04 11:07:57;;;;;;;6.63;3.80;;;16.90;99.90;;;;;;5056033;28;20461;-78
2022/10/04 11:11:07;;;;;;;11.02;4.07;;;16.90;99.90;;;;;;5046871;28;20084;-78
2022/10/04 11:14:11;;;;;;;18.17;5.47;;;17.00;99.90;;;;;;5043350;28;20057;-78
2022/10/04 11:17:10;;;;;;;12.52;5.53;;;17.10;99.90;;;;;;5055427;28;20179;-78
2022/10/04 11:20:17;;;;;;;9.27;4.20;;;17.10;99.90;;;;;;5055882;28;20481;-77
2022/10/04 11:23:01;;;;;;;10.13;3.85;;;17.20;99.90;;;;;;5070854;28;20159;-78
2022/10/04 11:25:44;;;;;;;6.25;3.83;;;17.30;99.90;;;;;;5075171;28;20052;-78
2022/10/04 11:28:17;;;;;;;11.07;4.70;;;17.30;99.90;;;;;;5075391;28;20044;-78
2022/10/04 11:31:09;;;;;;;7.63;4.00;;;17.30;99.90;;;;;;5075198;28;20052;-78
2022/10/04 11:34:16;;;;;;;9.13;4.43;;;17.30;99.90;;;;;;5074991;28;20044;-78
2022/10/04 11:37:21;;;;;;;9.88;4.57;;;17.30;99.90;;;;;;5054244;28;20064;-78
2022/10/04 11:40:20;;;;;;;7.25;4.38;;;17.40;99.90;;;;;;5060223;28;20052;-78
2022/10/04 11:43:00;;;;;;;9.50;3.92;;;17.30;99.90;;;;;;5074906;28;20079;-78
2022/10/04 11:46:00;;;;;;;9.35;4.63;;;17.30;99.90;;;;;;5074390;28;20056;-78
2022/10/04 11:48:41;;;;;;;10.27;4.20;;;17.40;99.90;;;;;;5073307;28;20049;-78
2022/10/04 11:51:28;;;;;;;5.05;3.65;;;17.40;99.90;;;;;;5074441;28;20044;-78
2022/10/04 11:54:06;;;;;;;7.27;3.43;;;17.50;99.90;;;;;;5074587;28;20049;-78
2022/10/04 11:56:48;;;;;;;5.68;3.00;;;17.50;99.90;;;;;;5074310;28;20781;-78
2022/10/04 11:59:28;;;;;;;8.65;3.58;;;17.60;99.90;;;;;;5074635;28;20070;-78
2022/10/04 12:02:27;;;;;;;6.43;2.97;;;17.60;99.90;;;;;;5074537;28;20079;-79
2022/10/04 12:05:15;;;;;;;8.82;2.85;;;17.70;99.90;;;;;;5074289;28;20106;-78
2022/10/04 12:08:13;;;;;;;6.25;3.00;;;17.90;99.90;;;;;;5074494;28;20519;-78
2022/10/04 12:10:41;;;;;;;7.72;2.95;;;17.90;99.90;;;;;;5074515;28;20086;-78
2022/10/04 12:13:21;;;;;;;7.43;2.88;;;17.90;99.90;;;;;;5074260;28;20041;-79
2022/10/04 12:16:15;;;;;;;7.55;2.85;;;17.90;99.90;;;;;;5074591;28;20040;-79
2022/10/04 12:19:19;;;;;;;6.85;2.80;;;17.80;99.90;;;;;;5072800;28;20051;-79
2022/10/04 12:22:10;;;;;;;6.10;2.92;;;17.80;99.90;;;;;;5072913;28;20044;-78
2022/10/04 12:25:08;;;;;;;8.63;3.10;;;17.80;99.90;;;;;;5073445;28;20075;-80
2022/10/04 12:28:10;;;;;;;5.07;2.67;;;17.80;99.90;;;;;;5073349;28;20048;-78
2022/10/04 12:31:02;;;;;;;8.07;3.08;;;17.80;99.90;;;;;;5060929;28;20059;-80
2022/10/04 12:33:40;;;;;;;7.97;3.20;;;17.80;99.90;;;;;;5066289;28;20098;-78
2022/10/04 12:36:29;;;;;;;6.07;2.95;;;17.70;99.90;;;;;;5056166;28;20052;-79
2022/10/04 12:38:55;;;;;;;6.60;3.20;;;17.80;99.90;;;;;;5073633;28;20545;-78
2022/10/04 12:41:38;;;;;;;7.07;2.93;;;17.90;99.90;;;;;;5073470;28;20131;-77
2022/10/04 12:44:10;;;;;;;7.32;3.38;;;17.80;99.90;;;;;;5073553;28;20052;-77
2022/10/04 12:47:05;;;;;;;5.63;3.30;;;17.90;99.90;;;;;;5073634;28;20049;-77
2022/10/04 12:50:08;;;;;;;10.68;3.60;;;17.90;99.90;;;;;;5072469;28;20055;-78
2022/10/04 12:52:52;;;;;;;7.45;3.88;;;17.90;99.90;;;;;;5073778;28;20044;-78
2022/10/04 12:55:39;;;;;;;8.25;4.05;;;18.00;99.90;;;;;;5073717;28;20041;-78
2022/10/04 12:58:26;;;;;;;7.10;3.88;;;17.80;99.90;;;;;;5073707;28;20136;-78
2022/10/04 13:00:56;;;;;;;6.38;3.80;;;17.80;99.90;;;;;;5073647;28;20052;-78
2022/10/04 13:03:40;;;;;;;6.50;3.83;;;17.70;99.90;;;;;;5072790;28;20052;-77
2022/10/04 13:06:31;;;;;;;8.30;3.90;;;17.70;99.90;;;;;;5073600;28;20052;-78
2022/10/04 13:09:13;;;;;;;8.25;4.20;;;17.60;99.90;;;;;;5073439;28;20052;-77
2022/10/04 13:12:21;;;;;;;6.55;3.90;;;17.60;99.90;;;;;;5072817;28;20496;-78
2022/10/04 13:14:57;;;;;;;8.52;4.20;;;17.60;99.90;;;;;;5063209;28;20052;-79
2022/10/04 13:17:42;;;;;;;8.68;3.58;;;17.60;99.90;;;;;;5070520;28;20112;-78
2022/10/04 13:20:46;;;;;;;7.05;3.70;;;17.70;99.90;;;;;;5071375;28;20040;-78
2022/10/04 13:23:16;;;;;;;8.32;4.32;;;17.70;99.90;;;;;;5071567;28;20404;-78
2022/10/04 13:26:02;;;;;;;8.25;3.88;;;17.60;99.90;;;;;;5068838;28;20045;-77
2022/10/04 13:28:42;;;;;;;7.70;3.83;;;17.60;99.90;;;;;;5070602;28;20059;-78
2022/10/04 13:31:33;;;;;;;6.28;3.85;;;17.60;99.90;;;;;;5071376;28;20178;-78
2022/10/04 13:34:19;;;;;;;9.05;4.25;;;17.60;99.90;;;;;;5072580;28;20127;-77
2022/10/04 13:36:59;;;;;;;9.10;4.05;;;17.60;99.90;;;;;;5070551;28;20055;-78
2022/10/04 13:39:51;;;;;;;7.38;3.70;;;17.60;99.90;;;;;;5073201;28;20051;-78
2022/10/04 13:43:14;;;;;;;5.65;3.58;;;17.60;99.90;;;;;;5073347;28;20052;-78
2022/10/04 13:46:08;;;;;;;7.05;4.10;;;17.50;99.90;;;;;;5030952;28;20096;-78
2022/10/04 13:48:50;;;;;;;7.00;4.15;;;17.40;99.90;;;;;;5072543;28;20052;-78
2022/10/04 13:51:31;;;;;;;7.82;3.88;;;17.20;99.90;;;;;;5072032;28;20088;-78
2022/10/04 13:57:44;;;;;;;8.32;3.70;;;17.00;99.90;;;;;;5030817;28;20132;-78
2022/10/04 14:00:30;;;;;;;9.25;4.03;;;17.00;99.90;;;;;;5073201;28;20045;-78
2022/10/04 14:03:09;;;;;;;9.02;3.78;;;17.20;99.90;;;;;;5073151;28;20098;-78